sensor_id;sensor_type;location;lat;lon;timestamp;P1;durP1;ratioP1;P2;durP2;ratioP2
7561;SDS011;3822;48.784;9.174;2023-10-19T00:01:14;7.60;;;5.80;;
7561;SDS011;3822;48.784;9.174;2023-10-19T00:03:43;7.60;;;5.37;;
7561;SDS011;3822;48.784;9.174;2023-10-19T00:06:10;8.83;;;6.27;;
7561;SDS011;3822;48.784;9.174;2023-10-19T00:08:39;8.00;;;6.00;;
7561;SDS011;3822;48.784;9.174;2023-10-19T00:11:10;8.30;;;6.03;;
7561;SDS011;3822;48.784;9.174;2023-10-19T00:13:47;10.63;;;5.97;;
7561;SDS011;3822;48.784;9.174;2023-10-19T00:16:16;8.23;;;5.80;;
7561;SDS011;3822;48.784;9.174;2023-10-19T00:18:43;8.17;;;6.13;;
7561;SDS011;3822;48.784;9.174;2023-10-19T00:21:10;10.47;;;5.40;;
7561;SDS011;3822;48.784;9.174;2023-10-19T00:23:57;9.03;;;6.40;;
7561;SDS011;3822;48.784;9.174;2023-10-19T00:26:30;9.50;;;6.37;;
7561;SDS011;3822;48.784;9.174;2023-10-19T00:28:57;8.17;;;6.10;;
7561;SDS011;3822;48.784;9.174;2023-10-19T00:31:40;9.70;;;5.90;;
7561;SDS011;3822;48.784;9.174;2023-10-19T00:34:11;9.43;;;6.67;;
7561;SDS011;3822;48.784;9.174;2023-10-19T00:36:40;8.07;;;5.90;;
7561;SDS011;3822;48.784;9.174;2023-10-19T00:39:06;7.63;;;4.60;;
7561;SDS011;3822;48.784;9.174;2023-10-19T00:41:41;7.00;;;4.47;;
7561;SDS011;3822;48.784;9.174;2023-10-19T00:44:09;7.33;;;5.40;;
7561;SDS011;3822;48.784;9.174;2023-10-19T00:46:43;8.00;;;4.50;;
7561;SDS011;3822;48.784;9.174;2023-10-19T00:49:15;6.17;;;4.40;;
7561;SDS011;3822;48.784;9.174;2023-10-19T00:54:20;5.60;;;3.60;;
7561;SDS011;3822;48.784;9.174;2023-10-19T00:57:12;5.87;;;3.70;;
7561;SDS011;3822;48.784;9.174;2023-10-19T00:59:41;6.67;;;3.80;;
7561;SDS011;3822;48.784;9.174;2023-10-19T01:02:14;6.07;;;3.67;;
7561;SDS011;3822;48.784;9.174;2023-10-19T01:04:43;5.03;;;3.20;;
7561;SDS011;3822;48.784;9.174;2023-10-19T01:07:16;3.77;;;2.90;;
7561;SDS011;3822;48.784;9.174;2023-10-19T01:09:48;5.43;;;3.77;;
7561;SDS011;3822;48.784;9.174;2023-10-19T01:12:27;3.83;;;3.30;;
7561;SDS011;3822;48.784;9.174;2023-10-19T01:17:40;6.00;;;3.33;;
7561;SDS011;3822;48.784;9.174;2023-10-19T01:20:16;3.00;;;2.70;;
7561;SDS011;3822;48.784;9.174;2023-10-19T01:22:56;3.57;;;2.83;;
7561;SDS011;3822;48.784;9.174;2023-10-19T01:28:09;4.67;;;2.90;;
7561;SDS011;3822;48.784;9.174;2023-10-19T01:30:36;5.37;;;2.90;;
7561;SDS011;3822;48.784;9.174;2023-10-19T01:33:04;2.70;;;2.00;;
7561;SDS011;3822;48.784;9.174;2023-10-19T01:35:38;5.20;;;3.03;;
7561;SDS011;3822;48.784;9.174;2023-10-19T01:38:24;6.23;;;3.03;;
7561;SDS011;3822;48.784;9.174;2023-10-19T01:40:51;3.10;;;2.73;;
7561;SDS011;3822;48.784;9.174;2023-10-19T01:43:19;6.10;;;3.27;;
7561;SDS011;3822;48.784;9.174;2023-10-19T01:45:56;3.47;;;2.93;;
7561;SDS011;3822;48.784;9.174;2023-10-19T01:48:37;3.67;;;2.20;;
7561;SDS011;3822;48.784;9.174;2023-10-19T01:51:10;4.63;;;2.90;;
7561;SDS011;3822;48.784;9.174;2023-10-19T01:53:42;4.30;;;2.57;;
7561;SDS011;3822;48.784;9.174;2023-10-19T01:56:15;5.40;;;3.50;;
7561;SDS011;3822;48.784;9.174;2023-10-19T01:58:48;7.40;;;5.03;;
7561;SDS011;3822;48.784;9.174;2023-10-19T02:01:20;8.80;;;5.83;;
7561;SDS011;3822;48.784;9.174;2023-10-19T02:03:55;10.70;;;6.23;;
7561;SDS011;3822;48.784;9.174;2023-10-19T02:06:32;7.83;;;5.80;;
7561;SDS011;3822;48.784;9.174;2023-10-19T02:11:35;11.10;;;6.53;;
7561;SDS011;3822;48.784;9.174;2023-10-19T02:14:07;7.97;;;5.80;;
7561;SDS011;3822;48.784;9.174;2023-10-19T02:16:43;8.60;;;5.97;;
7561;SDS011;3822;48.784;9.174;2023-10-19T02:19:29;10.90;;;7.43;;
7561;SDS011;3822;48.784;9.174;2023-10-19T02:21:57;8.43;;;6.37;;
7561;SDS011;3822;48.784;9.174;2023-10-19T02:24:29;10.37;;;7.20;;
7561;SDS011;3822;48.784;9.174;2023-10-19T02:26:58;9.70;;;6.53;;
7561;SDS011;3822;48.784;9.174;2023-10-19T02:29:26;10.50;;;6.70;;
7561;SDS011;3822;48.784;9.174;2023-10-19T02:31:53;10.77;;;7.17;;
7561;SDS011;3822;48.784;9.174;2023-10-19T02:34:20;8.10;;;6.40;;
7561;SDS011;3822;48.784;9.174;2023-10-19T02:36:49;10.17;;;6.93;;
7561;SDS011;3822;48.784;9.174;2023-10-19T02:39:16;11.27;;;7.50;;
7561;SDS011;3822;48.784;9.174;2023-10-19T02:41:46;9.33;;;6.57;;
7561;SDS011;3822;48.784;9.174;2023-10-19T02:44:17;11.63;;;7.30;;
7561;SDS011;3822;48.784;9.174;2023-10-19T02:46:52;14.17;;;7.20;;
7561;SDS011;3822;48.784;9.174;2023-10-19T02:49:24;10.80;;;7.30;;
7561;SDS011;3822;48.784;9.174;2023-10-19T02:51:53;11.67;;;7.97;;
7561;SDS011;3822;48.784;9.174;2023-10-19T02:54:20;9.23;;;7.40;;
7561;SDS011;3822;48.784;9.174;2023-10-19T02:56:50;8.27;;;6.63;;
7561;SDS011;3822;48.784;9.174;2023-10-19T02:59:19;9.10;;;6.87;;
7561;SDS011;3822;48.784;9.174;2023-10-19T03:01:49;11.93;;;8.10;;
7561;SDS011;3822;48.784;9.174;2023-10-19T03:04:27;9.83;;;6.90;;
7561;SDS011;3822;48.784;9.174;2023-10-19T03:06:56;8.27;;;6.30;;
7561;SDS011;3822;48.784;9.174;2023-10-19T03:09:23;11.10;;;6.70;;
7561;SDS011;3822;48.784;9.174;2023-10-19T03:11:56;9.00;;;7.00;;
7561;SDS011;3822;48.784;9.174;2023-10-19T03:14:29;9.00;;;6.30;;
7561;SDS011;3822;48.784;9.174;2023-10-19T03:16:57;10.07;;;6.97;;
7561;SDS011;3822;48.784;9.174;2023-10-19T03:19:26;12.13;;;6.60;;
7561;SDS011;3822;48.784;9.174;2023-10-19T03:21:53;9.40;;;6.83;;
7561;SDS011;3822;48.784;9.174;2023-10-19T03:24:21;10.87;;;7.00;;
7561;SDS011;3822;48.784;9.174;2023-10-19T03:27:07;11.07;;;6.83;;
7561;SDS011;3822;48.784;9.174;2023-10-19T03:29:39;10.23;;;6.97;;
7561;SDS011;3822;48.784;9.174;2023-10-19T03:32:06;9.57;;;6.73;;
7561;SDS011;3822;48.784;9.174;2023-10-19T03:34:34;9.93;;;6.80;;
7561;SDS011;3822;48.784;9.174;2023-10-19T03:37:01;10.03;;;6.60;;
7561;SDS011;3822;48.784;9.174;2023-10-19T03:39:32;10.10;;;7.63;;
7561;SDS011;3822;48.784;9.174;2023-10-19T03:42:04;9.23;;;6.77;;
7561;SDS011;3822;48.784;9.174;2023-10-19T03:44:34;9.00;;;6.13;;
7561;SDS011;3822;48.784;9.174;2023-10-19T03:47:12;11.77;;;6.80;;
7561;SDS011;3822;48.784;9.174;2023-10-19T03:49:44;13.70;;;7.83;;
7561;SDS011;3822;48.784;9.174;2023-10-19T03:52:12;9.13;;;6.40;;
7561;SDS011;3822;48.784;9.174;2023-10-19T03:54:39;13.30;;;6.70;;
7561;SDS011;3822;48.784;9.174;2023-10-19T03:57:07;8.37;;;6.37;;
7561;SDS011;3822;48.784;9.174;2023-10-19T03:59:45;14.50;;;7.27;;
7561;SDS011;3822;48.784;9.174;2023-10-19T04:02:24;10.97;;;6.73;;
7561;SDS011;3822;48.784;9.174;2023-10-19T04:04:55;10.07;;;7.10;;
7561;SDS011;3822;48.784;9.174;2023-10-19T04:07:24;8.67;;;6.47;;
7561;SDS011;3822;48.784;9.174;2023-10-19T04:09:56;11.73;;;7.73;;
7561;SDS011;3822;48.784;9.174;2023-10-19T04:12:23;9.40;;;6.60;;
7561;SDS011;3822;48.784;9.174;2023-10-19T04:14:51;10.33;;;7.33;;
7561;SDS011;3822;48.784;9.174;2023-10-19T04:17:17;9.43;;;6.63;;
7561;SDS011;3822;48.784;9.174;2023-10-19T04:19:47;10.40;;;7.00;;
7561;SDS011;3822;48.784;9.174;2023-10-19T04:22:21;12.40;;;7.53;;
7561;SDS011;3822;48.784;9.174;2023-10-19T04:24:50;9.77;;;6.67;;
7561;SDS011;3822;48.784;9.174;2023-10-19T04:27:19;9.00;;;6.63;;
7561;SDS011;3822;48.784;9.174;2023-10-19T04:29:48;9.43;;;6.90;;
7561;SDS011;3822;48.784;9.174;2023-10-19T04:32:15;11.13;;;6.97;;
7561;SDS011;3822;48.784;9.174;2023-10-19T04:34:52;9.80;;;6.80;;
7561;SDS011;3822;48.784;9.174;2023-10-19T04:37:21;12.17;;;7.33;;
7561;SDS011;3822;48.784;9.174;2023-10-19T04:39:57;9.33;;;6.20;;
7561;SDS011;3822;48.784;9.174;2023-10-19T04:42:26;9.70;;;7.00;;
7561;SDS011;3822;48.784;9.174;2023-10-19T04:44:58;14.00;;;7.03;;
7561;SDS011;3822;48.784;9.174;2023-10-19T04:47:25;10.07;;;6.60;;
7561;SDS011;3822;48.784;9.174;2023-10-19T04:49:54;10.37;;;6.57;;
7561;SDS011;3822;48.784;9.174;2023-10-19T04:52:21;11.60;;;6.37;;
7561;SDS011;3822;48.784;9.174;2023-10-19T04:54:47;12.27;;;6.47;;
7561;SDS011;3822;48.784;9.174;2023-10-19T04:57:14;8.97;;;6.30;;
7561;SDS011;3822;48.784;9.174;2023-10-19T04:59:40;11.37;;;7.13;;
7561;SDS011;3822;48.784;9.174;2023-10-19T05:02:11;7.00;;;5.80;;
7561;SDS011;3822;48.784;9.174;2023-10-19T05:04:37;8.90;;;5.67;;
7561;SDS011;3822;48.784;9.174;2023-10-19T05:07:04;10.20;;;6.67;;
7561;SDS011;3822;48.784;9.174;2023-10-19T05:09:31;10.03;;;6.53;;
7561;SDS011;3822;48.784;9.174;2023-10-19T05:11:58;9.03;;;6.67;;
7561;SDS011;3822;48.784;9.174;2023-10-19T05:14:27;13.60;;;6.83;;
7561;SDS011;3822;48.784;9.174;2023-10-19T05:16:55;11.53;;;7.30;;
7561;SDS011;3822;48.784;9.174;2023-10-19T05:19:22;9.60;;;7.20;;
7561;SDS011;3822;48.784;9.174;2023-10-19T05:21:48;10.27;;;6.20;;
7561;SDS011;3822;48.784;9.174;2023-10-19T05:24:15;10.33;;;6.43;;
7561;SDS011;3822;48.784;9.174;2023-10-19T05:26:41;14.93;;;7.13;;
7561;SDS011;3822;48.784;9.174;2023-10-19T05:29:08;13.33;;;7.10;;
7561;SDS011;3822;48.784;9.174;2023-10-19T05:31:34;10.60;;;6.50;;
7561;SDS011;3822;48.784;9.174;2023-10-19T05:34:01;10.40;;;6.00;;
7561;SDS011;3822;48.784;9.174;2023-10-19T05:36:28;21.73;;;8.23;;
7561;SDS011;3822;48.784;9.174;2023-10-19T05:38:54;14.37;;;7.50;;
7561;SDS011;3822;48.784;9.174;2023-10-19T05:41:21;9.40;;;6.10;;
7561;SDS011;3822;48.784;9.174;2023-10-19T05:43:48;13.37;;;7.40;;
7561;SDS011;3822;48.784;9.174;2023-10-19T05:46:15;11.40;;;5.67;;
7561;SDS011;3822;48.784;9.174;2023-10-19T05:48:44;12.07;;;6.40;;
7561;SDS011;3822;48.784;9.174;2023-10-19T05:51:11;9.20;;;5.87;;
7561;SDS011;3822;48.784;9.174;2023-10-19T05:53:40;10.43;;;6.70;;
7561;SDS011;3822;48.784;9.174;2023-10-19T05:56:07;9.50;;;5.80;;
7561;SDS011;3822;48.784;9.174;2023-10-19T05:58:35;7.90;;;4.97;;
7561;SDS011;3822;48.784;9.174;2023-10-19T06:01:02;9.57;;;6.57;;
7561;SDS011;3822;48.784;9.174;2023-10-19T06:03:29;9.70;;;6.27;;
7561;SDS011;3822;48.784;9.174;2023-10-19T06:05:56;13.17;;;7.40;;
7561;SDS011;3822;48.784;9.174;2023-10-19T06:08:24;13.53;;;7.83;;
7561;SDS011;3822;48.784;9.174;2023-10-19T06:10:55;13.10;;;7.70;;
7561;SDS011;3822;48.784;9.174;2023-10-19T06:13:22;11.30;;;7.77;;
7561;SDS011;3822;48.784;9.174;2023-10-19T06:15:50;15.43;;;6.87;;
7561;SDS011;3822;48.784;9.174;2023-10-19T06:18:17;11.67;;;7.27;;
7561;SDS011;3822;48.784;9.174;2023-10-19T06:20:44;9.50;;;6.77;;
7561;SDS011;3822;48.784;9.174;2023-10-19T06:23:17;9.90;;;6.93;;
7561;SDS011;3822;48.784;9.174;2023-10-19T06:25:44;12.07;;;7.10;;
7561;SDS011;3822;48.784;9.174;2023-10-19T06:28:11;9.93;;;6.93;;
7561;SDS011;3822;48.784;9.174;2023-10-19T06:30:38;11.60;;;7.07;;
7561;SDS011;3822;48.784;9.174;2023-10-19T06:33:08;12.27;;;7.50;;
7561;SDS011;3822;48.784;9.174;2023-10-19T06:35:35;11.70;;;8.10;;
7561;SDS011;3822;48.784;9.174;2023-10-19T06:38:03;12.00;;;6.90;;
7561;SDS011;3822;48.784;9.174;2023-10-19T06:40:35;9.57;;;6.60;;
7561;SDS011;3822;48.784;9.174;2023-10-19T06:43:07;13.00;;;8.17;;
7561;SDS011;3822;48.784;9.174;2023-10-19T06:45:34;14.47;;;7.57;;
7561;SDS011;3822;48.784;9.174;2023-10-19T06:48:00;11.40;;;7.17;;
7561;SDS011;3822;48.784;9.174;2023-10-19T06:50:26;13.80;;;7.30;;
7561;SDS011;3822;48.784;9.174;2023-10-19T06:52:57;10.20;;;6.87;;
7561;SDS011;3822;48.784;9.174;2023-10-19T06:55:23;10.30;;;6.50;;
7561;SDS011;3822;48.784;9.174;2023-10-19T06:57:54;11.10;;;6.90;;
7561;SDS011;3822;48.784;9.174;2023-10-19T07:00:29;11.33;;;8.13;;
7561;SDS011;3822;48.784;9.174;2023-10-19T07:02:56;9.33;;;6.80;;
7561;SDS011;3822;48.784;9.174;2023-10-19T07:05:29;12.67;;;5.97;;
7561;SDS011;3822;48.784;9.174;2023-10-19T07:07:56;13.67;;;7.63;;
7561;SDS011;3822;48.784;9.174;2023-10-19T07:10:25;10.70;;;7.50;;
7561;SDS011;3822;48.784;9.174;2023-10-19T07:12:53;11.33;;;6.80;;
7561;SDS011;3822;48.784;9.174;2023-10-19T07:15:22;11.57;;;6.97;;
7561;SDS011;3822;48.784;9.174;2023-10-19T07:17:51;16.50;;;6.97;;
7561;SDS011;3822;48.784;9.174;2023-10-19T07:20:18;11.80;;;8.20;;
7561;SDS011;3822;48.784;9.174;2023-10-19T07:22:51;10.10;;;7.03;;
7561;SDS011;3822;48.784;9.174;2023-10-19T07:25:25;12.17;;;7.13;;
7561;SDS011;3822;48.784;9.174;2023-10-19T07:27:55;7.93;;;5.60;;
7561;SDS011;3822;48.784;9.174;2023-10-19T07:30:25;11.53;;;7.90;;
7561;SDS011;3822;48.784;9.174;2023-10-19T07:32:55;9.83;;;6.30;;
7561;SDS011;3822;48.784;9.174;2023-10-19T07:35:24;15.27;;;6.70;;
7561;SDS011;3822;48.784;9.174;2023-10-19T07:37:55;9.37;;;6.20;;
7561;SDS011;3822;48.784;9.174;2023-10-19T07:40:24;9.30;;;6.40;;
7561;SDS011;3822;48.784;9.174;2023-10-19T07:42:51;12.53;;;7.60;;
7561;SDS011;3822;48.784;9.174;2023-10-19T07:45:21;15.30;;;8.60;;
7561;SDS011;3822;48.784;9.174;2023-10-19T07:47:49;11.13;;;7.70;;
7561;SDS011;3822;48.784;9.174;2023-10-19T07:50:16;17.80;;;7.43;;
7561;SDS011;3822;48.784;9.174;2023-10-19T07:52:43;15.67;;;7.80;;
7561;SDS011;3822;48.784;9.174;2023-10-19T07:55:15;17.83;;;7.80;;
7561;SDS011;3822;48.784;9.174;2023-10-19T07:57:43;16.83;;;9.37;;
7561;SDS011;3822;48.784;9.174;2023-10-19T08:00:10;20.47;;;9.50;;
7561;SDS011;3822;48.784;9.174;2023-10-19T08:02:40;16.03;;;8.83;;
7561;SDS011;3822;48.784;9.174;2023-10-19T08:05:13;11.60;;;8.80;;
7561;SDS011;3822;48.784;9.174;2023-10-19T08:07:41;18.17;;;8.80;;
7561;SDS011;3822;48.784;9.174;2023-10-19T08:10:09;17.87;;;8.77;;
7561;SDS011;3822;48.784;9.174;2023-10-19T08:12:41;11.20;;;7.70;;
7561;SDS011;3822;48.784;9.174;2023-10-19T08:15:09;12.80;;;8.97;;
7561;SDS011;3822;48.784;9.174;2023-10-19T08:17:38;19.93;;;7.50;;
7561;SDS011;3822;48.784;9.174;2023-10-19T08:20:06;13.20;;;8.53;;
7561;SDS011;3822;48.784;9.174;2023-10-19T08:22:42;13.93;;;8.40;;
7561;SDS011;3822;48.784;9.174;2023-10-19T08:25:14;22.83;;;7.20;;
7561;SDS011;3822;48.784;9.174;2023-10-19T08:27:41;13.27;;;7.90;;
7561;SDS011;3822;48.784;9.174;2023-10-19T08:30:13;12.87;;;7.47;;
7561;SDS011;3822;48.784;9.174;2023-10-19T08:32:44;9.10;;;6.53;;
7561;SDS011;3822;48.784;9.174;2023-10-19T08:35:14;13.30;;;7.93;;
7561;SDS011;3822;48.784;9.174;2023-10-19T08:37:46;20.37;;;8.80;;
7561;SDS011;3822;48.784;9.174;2023-10-19T08:40:13;17.00;;;8.80;;
7561;SDS011;3822;48.784;9.174;2023-10-19T08:42:41;28.50;;;11.47;;
7561;SDS011;3822;48.784;9.174;2023-10-19T08:45:08;42.83;;;15.27;;
7561;SDS011;3822;48.784;9.174;2023-10-19T08:50:25;25.37;;;12.10;;
7561;SDS011;3822;48.784;9.174;2023-10-19T08:53:02;20.70;;;9.10;;
7561;SDS011;3822;48.784;9.174;2023-10-19T08:55:31;19.20;;;8.90;;
7561;SDS011;3822;48.784;9.174;2023-10-19T08:58:00;19.03;;;8.70;;
7561;SDS011;3822;48.784;9.174;2023-10-19T09:00:38;15.47;;;9.23;;
7561;SDS011;3822;48.784;9.174;2023-10-19T09:03:14;17.23;;;9.90;;
7561;SDS011;3822;48.784;9.174;2023-10-19T09:05:42;19.40;;;10.33;;
7561;SDS011;3822;48.784;9.174;2023-10-19T09:08:19;16.60;;;9.10;;
7561;SDS011;3822;48.784;9.174;2023-10-19T09:10:48;12.63;;;8.67;;
7561;SDS011;3822;48.784;9.174;2023-10-19T09:13:17;21.67;;;8.27;;
7561;SDS011;3822;48.784;9.174;2023-10-19T09:15:44;15.23;;;8.10;;
7561;SDS011;3822;48.784;9.174;2023-10-19T09:18:14;17.83;;;8.30;;
7561;SDS011;3822;48.784;9.174;2023-10-19T09:20:44;10.07;;;7.13;;
7561;SDS011;3822;48.784;9.174;2023-10-19T09:23:27;12.10;;;7.30;;
7561;SDS011;3822;48.784;9.174;2023-10-19T09:25:57;15.93;;;8.87;;
7561;SDS011;3822;48.784;9.174;2023-10-19T09:28:28;14.63;;;7.43;;
7561;SDS011;3822;48.784;9.174;2023-10-19T09:31:00;10.20;;;6.60;;
7561;SDS011;3822;48.784;9.174;2023-10-19T09:33:27;14.73;;;7.00;;
7561;SDS011;3822;48.784;9.174;2023-10-19T09:35:54;11.33;;;8.07;;
7561;SDS011;3822;48.784;9.174;2023-10-19T09:38:29;14.53;;;7.37;;
7561;SDS011;3822;48.784;9.174;2023-10-19T09:40:56;12.30;;;7.40;;
7561;SDS011;3822;48.784;9.174;2023-10-19T09:45:56;12.37;;;6.30;;
7561;SDS011;3822;48.784;9.174;2023-10-19T09:48:29;15.20;;;6.90;;
7561;SDS011;3822;48.784;9.174;2023-10-19T09:51:01;12.97;;;6.80;;
7561;SDS011;3822;48.784;9.174;2023-10-19T09:53:34;13.67;;;7.47;;
7561;SDS011;3822;48.784;9.174;2023-10-19T09:56:04;15.37;;;7.93;;
7561;SDS011;3822;48.784;9.174;2023-10-19T09:58:40;14.97;;;7.03;;
7561;SDS011;3822;48.784;9.174;2023-10-19T10:01:15;16.83;;;6.97;;
7561;SDS011;3822;48.784;9.174;2023-10-19T10:06:30;15.50;;;5.90;;
7561;SDS011;3822;48.784;9.174;2023-10-19T10:09:20;6.93;;;4.70;;
7561;SDS011;3822;48.784;9.174;2023-10-19T10:11:50;7.57;;;4.20;;
7561;SDS011;3822;48.784;9.174;2023-10-19T10:14:22;8.20;;;4.50;;
7561;SDS011;3822;48.784;9.174;2023-10-19T10:17:03;8.57;;;5.17;;
7561;SDS011;3822;48.784;9.174;2023-10-19T10:19:35;7.77;;;4.83;;
7561;SDS011;3822;48.784;9.174;2023-10-19T10:22:11;8.20;;;4.97;;
7561;SDS011;3822;48.784;9.174;2023-10-19T10:24:41;8.90;;;4.53;;
7561;SDS011;3822;48.784;9.174;2023-10-19T10:27:07;5.67;;;3.90;;
7561;SDS011;3822;48.784;9.174;2023-10-19T10:29:35;8.53;;;4.33;;
7561;SDS011;3822;48.784;9.174;2023-10-19T10:32:02;14.67;;;5.00;;
7561;SDS011;3822;48.784;9.174;2023-10-19T10:37:04;4.63;;;2.90;;
7561;SDS011;3822;48.784;9.174;2023-10-19T10:39:38;4.60;;;3.00;;
7561;SDS011;3822;48.784;9.174;2023-10-19T10:42:10;3.70;;;2.67;;
7561;SDS011;3822;48.784;9.174;2023-10-19T10:44:47;4.07;;;3.00;;
7561;SDS011;3822;48.784;9.174;2023-10-19T10:47:18;3.80;;;2.90;;
7561;SDS011;3822;48.784;9.174;2023-10-19T10:49:59;7.57;;;3.13;;
7561;SDS011;3822;48.784;9.174;2023-10-19T10:54:58;3.90;;;2.87;;
7561;SDS011;3822;48.784;9.174;2023-10-19T10:57:33;5.57;;;3.07;;
7561;SDS011;3822;48.784;9.174;2023-10-19T11:02:41;5.50;;;2.80;;
7561;SDS011;3822;48.784;9.174;2023-10-19T11:05:10;6.23;;;2.77;;
7561;SDS011;3822;48.784;9.174;2023-10-19T11:08:02;3.10;;;2.60;;
7561;SDS011;3822;48.784;9.174;2023-10-19T11:10:39;2.97;;;2.60;;
7561;SDS011;3822;48.784;9.174;2023-10-19T11:13:12;6.20;;;2.83;;
7561;SDS011;3822;48.784;9.174;2023-10-19T11:15:48;3.73;;;2.80;;
7561;SDS011;3822;48.784;9.174;2023-10-19T11:21:16;7.03;;;3.70;;
7561;SDS011;3822;48.784;9.174;2023-10-19T11:23:49;7.37;;;2.50;;
7561;SDS011;3822;48.784;9.174;2023-10-19T11:26:20;5.33;;;3.10;;
7561;SDS011;3822;48.784;9.174;2023-10-19T11:28:57;4.13;;;2.90;;
7561;SDS011;3822;48.784;9.174;2023-10-19T11:31:29;3.93;;;2.53;;
7561;SDS011;3822;48.784;9.174;2023-10-19T11:34:06;4.30;;;3.03;;
7561;SDS011;3822;48.784;9.174;2023-10-19T11:36:35;5.00;;;2.70;;
7561;SDS011;3822;48.784;9.174;2023-10-19T11:39:02;4.50;;;2.80;;
7561;SDS011;3822;48.784;9.174;2023-10-19T11:41:32;4.67;;;2.70;;
7561;SDS011;3822;48.784;9.174;2023-10-19T11:43:58;7.33;;;3.13;;
7561;SDS011;3822;48.784;9.174;2023-10-19T11:46:26;8.97;;;3.13;;
7561;SDS011;3822;48.784;9.174;2023-10-19T11:48:55;3.83;;;2.40;;
7561;SDS011;3822;48.784;9.174;2023-10-19T11:51:21;5.40;;;2.70;;
7561;SDS011;3822;48.784;9.174;2023-10-19T11:53:48;3.10;;;2.33;;
7561;SDS011;3822;48.784;9.174;2023-10-19T11:56:14;2.87;;;2.10;;
7561;SDS011;3822;48.784;9.174;2023-10-19T11:58:42;3.17;;;2.37;;
7561;SDS011;3822;48.784;9.174;2023-10-19T12:01:10;2.87;;;2.30;;
7561;SDS011;3822;48.784;9.174;2023-10-19T12:03:40;3.63;;;2.00;;
7561;SDS011;3822;48.784;9.174;2023-10-19T12:06:16;2.80;;;2.13;;
7561;SDS011;3822;48.784;9.174;2023-10-19T12:08:47;2.60;;;2.30;;
7561;SDS011;3822;48.784;9.174;2023-10-19T12:11:14;4.37;;;2.60;;
7561;SDS011;3822;48.784;9.174;2023-10-19T12:13:47;3.00;;;2.20;;
7561;SDS011;3822;48.784;9.174;2023-10-19T12:16:17;5.23;;;3.23;;
7561;SDS011;3822;48.784;9.174;2023-10-19T12:18:43;5.00;;;3.00;;
7561;SDS011;3822;48.784;9.174;2023-10-19T12:21:12;5.40;;;3.77;;
7561;SDS011;3822;48.784;9.174;2023-10-19T12:23:38;4.33;;;2.93;;
7561;SDS011;3822;48.784;9.174;2023-10-19T12:26:09;7.07;;;3.10;;
7561;SDS011;3822;48.784;9.174;2023-10-19T12:28:40;9.60;;;3.87;;
7561;SDS011;3822;48.784;9.174;2023-10-19T12:31:08;8.20;;;3.57;;
7561;SDS011;3822;48.784;9.174;2023-10-19T12:33:37;7.00;;;3.70;;
7561;SDS011;3822;48.784;9.174;2023-10-19T12:36:07;9.43;;;2.90;;
7561;SDS011;3822;48.784;9.174;2023-10-19T12:38:57;4.70;;;2.40;;
7561;SDS011;3822;48.784;9.174;2023-10-19T12:41:24;4.63;;;2.50;;
7561;SDS011;3822;48.784;9.174;2023-10-19T12:43:50;4.60;;;3.33;;
7561;SDS011;3822;48.784;9.174;2023-10-19T12:46:23;5.00;;;3.20;;
7561;SDS011;3822;48.784;9.174;2023-10-19T12:48:58;4.37;;;3.10;;
7561;SDS011;3822;48.784;9.174;2023-10-19T12:51:24;4.33;;;2.83;;
7561;SDS011;3822;48.784;9.174;2023-10-19T12:53:51;5.87;;;2.77;;
7561;SDS011;3822;48.784;9.174;2023-10-19T12:56:21;4.10;;;3.07;;
7561;SDS011;3822;48.784;9.174;2023-10-19T12:58:54;4.60;;;3.13;;
7561;SDS011;3822;48.784;9.174;2023-10-19T13:01:21;5.93;;;3.07;;
7561;SDS011;3822;48.784;9.174;2023-10-19T13:03:50;4.47;;;2.70;;
7561;SDS011;3822;48.784;9.174;2023-10-19T13:06:17;4.70;;;3.10;;
7561;SDS011;3822;48.784;9.174;2023-10-19T13:08:45;3.57;;;3.17;;
7561;SDS011;3822;48.784;9.174;2023-10-19T13:11:14;6.60;;;3.60;;
7561;SDS011;3822;48.784;9.174;2023-10-19T13:13:40;4.30;;;3.30;;
7561;SDS011;3822;48.784;9.174;2023-10-19T13:16:07;4.57;;;3.13;;
7561;SDS011;3822;48.784;9.174;2023-10-19T13:18:36;6.57;;;2.80;;
7561;SDS011;3822;48.784;9.174;2023-10-19T13:21:08;6.63;;;3.90;;
7561;SDS011;3822;48.784;9.174;2023-10-19T13:23:44;5.30;;;3.63;;
7561;SDS011;3822;48.784;9.174;2023-10-19T13:26:11;3.83;;;3.23;;
7561;SDS011;3822;48.784;9.174;2023-10-19T13:28:43;4.80;;;3.50;;
7561;SDS011;3822;48.784;9.174;2023-10-19T13:31:10;5.23;;;3.90;;
7561;SDS011;3822;48.784;9.174;2023-10-19T13:33:39;6.97;;;4.03;;
7561;SDS011;3822;48.784;9.174;2023-10-19T13:36:09;10.23;;;3.83;;
7561;SDS011;3822;48.784;9.174;2023-10-19T13:38:41;7.57;;;5.20;;
7561;SDS011;3822;48.784;9.174;2023-10-19T13:41:08;7.17;;;4.20;;
7561;SDS011;3822;48.784;9.174;2023-10-19T13:43:36;6.60;;;4.00;;
7561;SDS011;3822;48.784;9.174;2023-10-19T13:46:08;6.80;;;4.57;;
7561;SDS011;3822;48.784;9.174;2023-10-19T13:48:39;7.40;;;4.40;;
7561;SDS011;3822;48.784;9.174;2023-10-19T13:51:08;7.93;;;4.10;;
7561;SDS011;3822;48.784;9.174;2023-10-19T13:53:41;5.93;;;4.10;;
7561;SDS011;3822;48.784;9.174;2023-10-19T13:56:10;6.07;;;4.23;;
7561;SDS011;3822;48.784;9.174;2023-10-19T13:58:38;6.60;;;4.00;;
7561;SDS011;3822;48.784;9.174;2023-10-19T14:01:08;6.37;;;4.07;;
7561;SDS011;3822;48.784;9.174;2023-10-19T14:03:35;6.30;;;3.70;;
7561;SDS011;3822;48.784;9.174;2023-10-19T14:06:13;5.23;;;3.63;;
7561;SDS011;3822;48.784;9.174;2023-10-19T14:08:40;7.13;;;4.43;;
7561;SDS011;3822;48.784;9.174;2023-10-19T14:11:09;7.63;;;4.30;;
7561;SDS011;3822;48.784;9.174;2023-10-19T14:13:36;7.20;;;4.57;;
7561;SDS011;3822;48.784;9.174;2023-10-19T14:16:06;5.23;;;3.70;;
7561;SDS011;3822;48.784;9.174;2023-10-19T14:18:33;6.17;;;3.90;;
7561;SDS011;3822;48.784;9.174;2023-10-19T14:21:09;6.40;;;4.00;;
7561;SDS011;3822;48.784;9.174;2023-10-19T14:23:44;7.10;;;4.47;;
7561;SDS011;3822;48.784;9.174;2023-10-19T14:26:11;5.70;;;3.90;;
7561;SDS011;3822;48.784;9.174;2023-10-19T14:28:40;7.40;;;3.87;;
7561;SDS011;3822;48.784;9.174;2023-10-19T14:31:07;4.97;;;3.73;;
7561;SDS011;3822;48.784;9.174;2023-10-19T14:33:33;7.77;;;4.40;;
7561;SDS011;3822;48.784;9.174;2023-10-19T14:36:01;7.30;;;4.30;;
7561;SDS011;3822;48.784;9.174;2023-10-19T14:38:30;8.00;;;5.70;;
7561;SDS011;3822;48.784;9.174;2023-10-19T14:40:56;6.00;;;4.10;;
7561;SDS011;3822;48.784;9.174;2023-10-19T14:43:23;7.80;;;4.23;;
7561;SDS011;3822;48.784;9.174;2023-10-19T14:45:51;5.60;;;4.00;;
7561;SDS011;3822;48.784;9.174;2023-10-19T14:48:18;10.10;;;5.60;;
7561;SDS011;3822;48.784;9.174;2023-10-19T14:50:48;7.70;;;4.43;;
7561;SDS011;3822;48.784;9.174;2023-10-19T14:53:19;7.17;;;4.57;;
7561;SDS011;3822;48.784;9.174;2023-10-19T14:55:45;7.10;;;4.33;;
7561;SDS011;3822;48.784;9.174;2023-10-19T14:58:14;9.83;;;4.07;;
7561;SDS011;3822;48.784;9.174;2023-10-19T15:00:40;7.67;;;4.37;;
7561;SDS011;3822;48.784;9.174;2023-10-19T15:03:10;6.20;;;4.20;;
7561;SDS011;3822;48.784;9.174;2023-10-19T15:05:37;8.90;;;3.90;;
7561;SDS011;3822;48.784;9.174;2023-10-19T15:08:06;9.07;;;4.20;;
7561;SDS011;3822;48.784;9.174;2023-10-19T15:10:39;5.83;;;3.97;;
7561;SDS011;3822;48.784;9.174;2023-10-19T15:13:10;10.90;;;5.10;;
7561;SDS011;3822;48.784;9.174;2023-10-19T15:15:36;5.77;;;4.00;;
7561;SDS011;3822;48.784;9.174;2023-10-19T15:18:03;8.13;;;4.87;;
7561;SDS011;3822;48.784;9.174;2023-10-19T15:20:30;6.40;;;4.10;;
7561;SDS011;3822;48.784;9.174;2023-10-19T15:22:58;4.80;;;4.03;;
7561;SDS011;3822;48.784;9.174;2023-10-19T15:25:27;6.03;;;4.63;;
7561;SDS011;3822;48.784;9.174;2023-10-19T15:27:54;10.10;;;4.63;;
7561;SDS011;3822;48.784;9.174;2023-10-19T15:30:21;6.27;;;3.50;;
7561;SDS011;3822;48.784;9.174;2023-10-19T15:32:51;5.50;;;3.50;;
7561;SDS011;3822;48.784;9.174;2023-10-19T15:35:19;5.67;;;3.67;;
7561;SDS011;3822;48.784;9.174;2023-10-19T15:37:49;5.60;;;3.83;;
7561;SDS011;3822;48.784;9.174;2023-10-19T15:40:20;6.70;;;3.70;;
7561;SDS011;3822;48.784;9.174;2023-10-19T15:42:47;6.47;;;3.60;;
7561;SDS011;3822;48.784;9.174;2023-10-19T15:45:14;6.93;;;3.70;;
7561;SDS011;3822;48.784;9.174;2023-10-19T15:47:44;8.07;;;3.93;;
7561;SDS011;3822;48.784;9.174;2023-10-19T15:50:14;5.53;;;3.83;;
7561;SDS011;3822;48.784;9.174;2023-10-19T15:52:42;3.73;;;3.13;;
7561;SDS011;3822;48.784;9.174;2023-10-19T15:55:10;6.10;;;3.23;;
7561;SDS011;3822;48.784;9.174;2023-10-19T15:57:38;5.53;;;3.70;;